createdAt,value
2022-09-17T01:10:52.189Z,19.75
2022-09-17T01:14:09.724Z,14.27
2022-09-17T01:17:59.589Z,16.33
2022-09-17T01:21:08.213Z,16.70
2022-09-17T10:35:05.929Z,1.77
2022-09-17T10:37:57.749Z,2.00
2022-09-17T10:40:45.025Z,3.00
2022-09-17T10:43:37.788Z,1.62
2022-09-17T10:49:24.998Z,1.90
2022-09-17T10:52:28.746Z,4.72
2022-09-17T10:55:24.622Z,3.55
2022-09-17T10:58:17.829Z,3.67
2022-09-17T11:01:26.150Z,3.60
2022-09-17T11:04:29.826Z,2.83
2022-09-17T11:07:49.693Z,2.62
2022-09-17T11:11:09.710Z,2.83
2022-09-17T11:14:11.906Z,2.83
2022-09-17T11:17:20.125Z,2.65
2022-09-17T11:20:24.735Z,3.75
2022-09-17T11:23:43.957Z,7.75
2022-09-17T11:26:49.748Z,3.53
2022-09-17T11:32:59.922Z,3.72
2022-09-17T11:36:01.210Z,2.83
2022-09-17T11:38:54.898Z,1.73
2022-09-17T11:41:49.913Z,4.22
2022-09-17T11:45:08.139Z,3.53
2022-09-17T11:48:07.169Z,5.35
2022-09-17T11:51:05.708Z,3.05
2022-09-17T11:54:00.959Z,4.12
2022-09-17T11:57:09.770Z,3.37
2022-09-17T12:00:02.728Z,2.40
2022-09-17T12:03:22.824Z,4.75
2022-09-17T12:06:19.721Z,4.22
2022-09-17T12:09:33.774Z,4.60
2022-09-17T12:12:47.759Z,2.50
2022-09-17T12:15:49.729Z,5.53
2022-09-17T12:18:47.256Z,4.32
2022-09-17T12:21:54.940Z,5.28
2022-09-17T12:24:50.716Z,3.17
2022-09-17T12:27:53.741Z,5.47
2022-09-17T12:30:50.859Z,2.25
2022-09-17T12:33:42.998Z,4.25
2022-09-17T12:36:50.278Z,4.22
2022-09-17T12:39:49.002Z,5.28
2022-09-17T12:43:23.748Z,4.47
2022-09-17T12:46:51.808Z,3.40
2022-09-17T12:50:03.387Z,3.22
2022-09-17T12:52:57.680Z,4.05
2022-09-17T12:55:58.887Z,3.87
2022-09-17T12:59:03.937Z,2.67
2022-09-17T13:01:56.751Z,4.93
2022-09-17T13:05:01.325Z,5.57
2022-09-17T13:07:58.729Z,5.07
2022-09-17T13:11:21.733Z,4.55
2022-09-17T13:14:30.013Z,2.85
2022-09-17T13:18:00.840Z,4.82
2022-09-17T13:21:02.272Z,3.22
2022-09-17T13:24:03.739Z,2.85
2022-09-17T13:26:59.712Z,3.85
2022-09-17T13:29:56.758Z,5.43
2022-09-17T13:32:54.720Z,4.63
2022-09-17T13:35:55.497Z,4.03
2022-09-17T21:46:14.776Z,1.65
2022-09-17T21:49:08.550Z,2.28
2022-09-17T21:51:55.590Z,2.53
2022-09-17T21:54:42.889Z,3.33
2022-09-17T21:57:29.981Z,2.10
2022-09-17T22:00:23.420Z,2.25
2022-09-17T22:03:20.041Z,2.25
2022-09-17T22:06:15.014Z,4.10
2022-09-17T22:09:03.146Z,2.37
2022-09-17T22:11:51.933Z,2.78
2022-09-17T22:14:39.094Z,1.42
2022-09-17T22:17:31.529Z,2.30
2022-09-17T22:20:19.634Z,2.58
2022-09-17T22:23:07.003Z,2.03
2022-09-17T22:26:08.868Z,1.60
2022-09-17T22:31:46.657Z,2.28
2022-09-17T22:34:32.902Z,3.53
2022-09-17T22:37:20.323Z,2.65
2022-09-17T22:40:09.700Z,1.85
2022-09-17T22:42:56.684Z,3.87
2022-09-17T22:45:43.069Z,1.67
2022-09-17T22:48:29.962Z,2.25
2022-09-17T22:51:17.752Z,5.03
2022-09-17T22:54:06.094Z,3.05
2022-09-17T22:56:52.786Z,4.53
2022-09-17T22:59:40.569Z,3.08
2022-09-17T23:02:28.222Z,4.28
2022-09-17T23:05:16.130Z,5.28
2022-09-17T23:08:03.688Z,3.58
2022-09-17T23:10:53.788Z,5.43
2022-09-17T23:13:40.105Z,2.75
2022-09-17T23:16:27.115Z,2.50
2022-09-17T23:19:15.625Z,4.43
2022-09-17T23:22:02.077Z,5.20
2022-09-17T23:24:50.032Z,3.95
2022-09-17T23:27:37.181Z,4.60
2022-09-17T23:30:25.169Z,2.83
2022-09-17T23:33:14.472Z,3.37
2022-09-17T23:36:09.287Z,2.83
2022-09-17T23:38:57.174Z,4.28
2022-09-17T23:41:45.696Z,3.08
2022-09-17T23:44:31.908Z,3.15
2022-09-17T23:47:18.317Z,3.92
2022-09-17T23:50:05.576Z,1.85
2022-09-17T23:52:52.773Z,6.45
2022-09-17T23:55:46.530Z,3.53
2022-09-17T23:58:33.658Z,6.45
